Details for Ryanair at EBCI




Go Back


Latest METAR
Local Time

EBCI 241350Z 06021KT CAVOK 04/M10 Q1019 NOSIG

24/02/2018, 15:03:01

Description
Results
Ryanair Logo
Number of Pilots based at EBCI
0 Pilots Based here
Number of Ryanair Flights Departed from EBCI
2 Flights Departed
Number of Ryanair Flights Arrived at EBCI
2 Flights Arrived
Number of Ryanair Schedules Departing from EBCI
149 Schedules
Number of Ryanair Schedules Arriving at EBCI
152 Schedules
Number of Ryanair Schedules Departing from EBCI availible today
48 Schedules Today
Number of Ryanair Schedules Arriving at EBCI availible today
48 Schedules Today
Average Landing Rate at EBCI
-192 fpm
Ryanair Average Landing Rate at EBCI
-247 fpm
Total Fuel Purchased at EBCI by Ryanair
10,474.36 kgs / 23,091.77 lbs

Pilots Based at EBCI


Pilot ID
Pilot Name
Pilot Rank
No. of Flights
No. of Flying Hours
There are no pilots assigned to this hub!   Will you be the first?
Content